createdAt,value
2019-04-06T00:01:18.434Z,91.35
2019-04-06T00:03:47.012Z,91.52
2019-04-06T00:06:15.658Z,91.67
2019-04-06T00:08:46.970Z,91.90
2019-04-06T00:11:15.565Z,91.82
2019-04-06T00:13:44.515Z,91.58
2019-04-06T00:16:13.185Z,91.28
2019-04-06T00:18:41.799Z,91.10
2019-04-06T00:21:10.378Z,91.11
2019-04-06T00:23:39.015Z,91.18
2019-04-06T00:26:07.728Z,91.47
2019-04-06T00:28:36.284Z,91.45
2019-04-06T00:31:09.246Z,91.34
2019-04-06T00:33:37.863Z,91.33
2019-04-06T00:36:06.432Z,91.53
2019-04-06T00:38:34.979Z,91.87
2019-04-06T00:41:03.558Z,92.12
2019-04-06T00:43:32.135Z,92.13
2019-04-06T00:46:00.747Z,92.02
2019-04-06T00:48:29.365Z,91.77
2019-04-06T00:50:58.406Z,91.52
2019-04-06T00:53:27.039Z,91.38
2019-04-06T00:55:56.367Z,91.22
2019-04-06T00:58:25.414Z,91.24
2019-04-06T01:00:54.136Z,91.14
2019-04-06T01:03:22.692Z,91.21
2019-04-06T01:05:51.378Z,91.04
2019-04-06T01:08:20.162Z,90.88
2019-04-06T01:10:48.746Z,90.37
2019-04-06T01:13:17.388Z,89.92
2019-04-06T01:15:46.155Z,90.29
2019-04-06T01:18:16.521Z,90.71
2019-04-06T01:20:45.138Z,90.98
2019-04-06T01:23:15.622Z,90.97
2019-04-06T01:25:46.358Z,90.94
2019-04-06T01:28:15.072Z,90.98
2019-04-06T01:30:45.529Z,91.27
2019-04-06T01:33:17.110Z,91.39
2019-04-06T01:35:45.832Z,91.11
2019-04-06T01:38:17.446Z,90.67
2019-04-06T01:40:49.079Z,90.60
2019-04-06T01:43:17.665Z,90.45
2019-04-06T01:45:46.788Z,90.43
2019-04-06T01:48:18.180Z,90.23
2019-04-06T01:50:49.774Z,90.16
2019-04-06T01:53:18.387Z,90.31
2019-04-06T01:55:46.968Z,90.90
2019-04-06T01:58:16.052Z,91.44
2019-04-06T02:00:46.511Z,91.64
2019-04-06T02:03:15.068Z,91.65
2019-04-06T02:05:45.715Z,91.49
2019-04-06T02:08:14.622Z,91.54
2019-04-06T02:10:43.228Z,91.74
2019-04-06T02:13:11.816Z,91.69
2019-04-06T02:15:41.293Z,91.55
2019-04-06T02:18:09.902Z,91.73
2019-04-06T02:20:38.469Z,91.79
2019-04-06T02:23:07.052Z,91.92
2019-04-06T02:25:35.658Z,92.22
2019-04-06T02:28:04.234Z,92.49
2019-04-06T02:30:37.608Z,92.41
2019-04-06T02:33:23.537Z,92.23
2019-04-06T02:35:56.145Z,92.32
2019-04-06T02:38:32.044Z,92.53
2019-04-06T02:41:14.917Z,92.46
2019-04-06T02:43:44.693Z,92.47
2019-04-06T02:46:13.383Z,92.41
2019-04-06T02:48:41.954Z,92.43
2019-04-06T02:51:10.506Z,92.43
2019-04-06T02:53:39.241Z,92.43
2019-04-06T02:56:07.798Z,92.41
2019-04-06T02:58:36.485Z,92.60
2019-04-06T03:01:05.263Z,92.77
2019-04-06T03:03:33.948Z,92.95
2019-04-06T03:06:02.776Z,93.16
2019-04-06T03:08:31.562Z,93.17
2019-04-06T03:11:00.272Z,92.96
2019-04-06T03:13:29.084Z,92.98
2019-04-06T03:15:57.744Z,93.13
2019-04-06T03:18:26.756Z,93.26
2019-04-06T03:20:55.312Z,93.33
2019-04-06T03:23:25.335Z,92.91
2019-04-06T03:25:54.433Z,92.58
2019-04-06T03:28:23.086Z,92.50
2019-04-06T03:30:51.638Z,93.13
2019-04-06T03:33:20.217Z,93.43
2019-04-06T03:35:50.391Z,93.75
2019-04-06T03:38:19.195Z,94.02
2019-04-06T03:40:47.758Z,93.91
2019-04-06T03:43:16.640Z,93.54
2019-04-06T03:45:47.695Z,93.02
2019-04-06T03:48:16.305Z,92.54
2019-04-06T03:50:46.655Z,92.27
2019-04-06T03:53:17.761Z,92.58
2019-04-06T03:55:46.343Z,93.05
2019-04-06T03:58:14.957Z,93.65
2019-04-06T04:00:45.489Z,94.27
2019-04-06T04:03:16.219Z,93.99
2019-04-06T04:05:46.683Z,93.44
2019-04-06T04:08:18.190Z,93.05
2019-04-06T04:10:49.743Z,92.92
2019-04-06T04:13:18.373Z,92.87
2019-04-06T04:15:46.947Z,92.60
2019-04-06T04:18:15.833Z,92.52
2019-04-06T04:20:47.140Z,92.29
2019-04-06T04:23:17.230Z,92.27
2019-04-06T04:25:47.767Z,92.04
2019-04-06T04:28:16.785Z,92.05
2019-04-06T04:30:48.145Z,91.73
2019-04-06T04:33:19.777Z,91.87
2019-04-06T04:35:48.469Z,91.91
2019-04-06T04:38:17.282Z,91.86
2019-04-06T04:40:47.651Z,91.61
2019-04-06T04:43:16.272Z,91.34
2019-04-06T04:45:46.589Z,91.39
2019-04-06T04:48:18.116Z,91.20
2019-04-06T04:50:49.993Z,91.57
2019-04-06T04:53:18.847Z,91.91
2019-04-06T04:55:47.426Z,92.07
2019-04-06T04:58:18.735Z,92.00
2019-04-06T05:00:47.335Z,91.91
2019-04-06T05:03:17.420Z,91.88
2019-04-06T05:05:48.971Z,91.46
2019-04-06T05:08:17.526Z,91.23
2019-04-06T05:10:49.627Z,90.63
2019-04-06T05:13:18.297Z,90.05
2019-04-06T05:16:09.849Z,89.69
2019-04-06T05:18:39.177Z,89.48
2019-04-06T05:21:07.929Z,88.89
2019-04-06T05:23:36.506Z,88.56
2019-04-06T05:26:06.110Z,88.96
2019-04-06T05:28:34.773Z,88.21
2019-04-06T05:31:03.457Z,88.23
2019-04-06T05:33:32.042Z,88.77
2019-04-06T05:36:00.776Z,88.13
2019-04-06T05:38:29.352Z,88.38
2019-04-06T05:40:58.048Z,88.11
2019-04-06T05:43:26.609Z,88.18
2019-04-06T05:45:55.278Z,87.72
2019-04-06T05:48:23.841Z,87.99
2019-04-06T05:50:52.864Z,87.49
2019-04-06T05:53:21.828Z,86.97
2019-04-06T05:55:50.549Z,86.49
2019-04-06T05:58:19.227Z,86.46
2019-04-06T06:00:47.832Z,86.49
2019-04-06T06:03:16.594Z,86.49
2019-04-06T06:05:45.428Z,86.02
2019-04-06T06:08:14.639Z,85.07
2019-04-06T06:10:43.243Z,83.62
2019-04-06T06:13:11.801Z,84.50
2019-04-06T06:15:40.887Z,84.93
2019-04-06T06:18:09.767Z,84.30
2019-04-06T06:20:38.344Z,83.69
2019-04-06T06:23:06.901Z,82.02
2019-04-06T06:25:35.537Z,82.49
2019-04-06T06:28:13.747Z,81.53
2019-04-06T06:30:34.694Z,80.56
2019-04-06T06:33:03.517Z,80.44
2019-04-06T06:35:32.350Z,80.85
2019-04-06T06:38:01.312Z,79.76
2019-04-06T06:40:29.901Z,79.83
2019-04-06T06:42:58.470Z,79.52
2019-04-06T06:45:27.390Z,78.02
2019-04-06T06:47:55.954Z,77.18
2019-04-06T06:50:24.515Z,76.95
2019-04-06T06:52:53.091Z,76.58
2019-04-06T06:55:21.726Z,76.27
2019-04-06T06:57:50.416Z,76.17
2019-04-06T07:00:19.206Z,75.35
2019-04-06T07:02:47.836Z,74.58
2019-04-06T07:05:16.459Z,74.67
2019-04-06T07:07:45.319Z,74.50
2019-04-06T07:10:17.554Z,73.47
2019-04-06T07:12:48.898Z,74.16
2019-04-06T07:15:17.545Z,72.41
2019-04-06T07:17:49.170Z,73.07
2019-04-06T07:20:18.343Z,72.01
2019-04-06T07:22:50.244Z,72.10
2019-04-06T07:25:19.049Z,72.84
2019-04-06T07:27:47.671Z,72.42
2019-04-06T07:30:16.749Z,71.14
2019-04-06T07:32:48.311Z,72.05
2019-04-06T07:35:17.444Z,71.52
2019-04-06T07:37:48.831Z,70.61
2019-04-06T07:40:17.840Z,69.61
2019-04-06T07:42:48.281Z,69.79
2019-04-06T07:45:17.210Z,69.80
2019-04-06T07:47:47.368Z,68.88
2019-04-06T07:50:19.211Z,68.94
2019-04-06T07:52:47.796Z,67.76
2019-04-06T07:55:16.424Z,66.87
2019-04-06T07:57:45.156Z,66.16
2019-04-06T08:00:13.803Z,66.92
2019-04-06T08:02:42.390Z,65.13
2019-04-06T08:05:11.208Z,65.01
2019-04-06T08:07:39.897Z,63.54
2019-04-06T08:10:09.253Z,63.95
2019-04-06T08:12:38.490Z,64.08
2019-04-06T08:15:09.236Z,63.64
2019-04-06T08:17:37.809Z,62.00
2019-04-06T08:20:09.250Z,62.20
2019-04-06T08:22:37.905Z,63.20
2019-04-06T08:25:07.213Z,61.57
2019-04-06T08:27:35.786Z,61.30
2019-04-06T08:30:09.022Z,60.88
2019-04-06T08:33:00.138Z,59.74
2019-04-06T08:35:28.701Z,59.45
2019-04-06T08:37:57.429Z,59.38
2019-04-06T08:40:25.982Z,59.33
2019-04-06T08:42:54.571Z,58.37
2019-04-06T08:45:23.452Z,58.60
2019-04-06T08:47:52.312Z,58.98
2019-04-06T08:50:20.867Z,59.03
2019-04-06T08:52:49.969Z,57.23
2019-04-06T08:55:18.554Z,57.35
2019-04-06T08:57:47.499Z,57.50
2019-04-06T09:00:19.046Z,55.90
2019-04-06T09:02:47.655Z,56.13
2019-04-06T09:05:16.379Z,57.87
2019-04-06T09:07:44.991Z,58.30
2019-04-06T09:10:13.958Z,56.03
2019-04-06T09:12:42.796Z,54.65
2019-04-06T09:15:11.724Z,54.52
2019-04-06T09:17:40.458Z,53.15
2019-04-06T09:20:09.874Z,54.45
2019-04-06T09:22:38.460Z,53.43
2019-04-06T09:25:07.843Z,53.15
2019-04-06T09:27:36.790Z,52.33
2019-04-06T09:30:06.696Z,53.20
2019-04-06T09:32:35.284Z,52.17
2019-04-06T09:35:08.406Z,51.98
2019-04-06T09:37:43.153Z,52.12
2019-04-06T09:40:13.514Z,54.22
2019-04-06T09:42:42.309Z,52.58
2019-04-06T09:45:21.738Z,50.46
2019-04-06T09:47:58.044Z,50.40
2019-04-06T09:50:31.213Z,48.58
2019-04-06T09:53:17.726Z,49.85
2019-04-06T09:55:47.886Z,50.94
2019-04-06T09:58:22.428Z,50.34
2019-04-06T10:01:04.718Z,49.49
2019-04-06T10:03:41.343Z,48.11
2019-04-06T10:06:27.951Z,47.10
2019-04-06T10:09:17.318Z,47.85
2019-04-06T10:11:49.244Z,48.70
2019-04-06T10:14:19.425Z,47.03
2019-04-06T10:16:49.658Z,48.68
2019-04-06T10:19:22.678Z,46.64
2019-04-06T10:21:52.927Z,46.71
2019-04-06T10:24:25.942Z,46.32
2019-04-06T10:26:58.647Z,46.96
2019-04-06T10:29:31.966Z,46.93
2019-04-06T10:32:05.084Z,44.81
2019-04-06T10:34:35.626Z,44.39
2019-04-06T10:37:22.442Z,43.09
2019-04-06T10:39:52.788Z,43.75
2019-04-06T10:42:32.002Z,43.81
2019-04-06T10:45:05.337Z,42.15
2019-04-06T10:47:41.410Z,42.72
2019-04-06T10:50:11.700Z,43.00
2019-04-06T10:52:54.097Z,42.97
2019-04-06T10:55:24.316Z,42.50
2019-04-06T10:58:03.573Z,40.98
2019-04-06T11:00:36.416Z,42.49
2019-04-06T11:03:15.245Z,40.95
2019-04-06T11:05:45.728Z,41.05
2019-04-06T11:08:27.993Z,41.58
2019-04-06T11:11:19.950Z,41.48
2019-04-06T11:14:00.238Z,41.29
2019-04-06T11:16:36.130Z,41.59
2019-04-06T11:19:22.881Z,41.74
2019-04-06T11:21:58.792Z,37.91
2019-04-06T11:24:43.805Z,38.77
2019-04-06T11:27:20.507Z,39.54
2019-04-06T11:29:53.698Z,37.87
2019-04-06T11:32:40.039Z,38.32
2019-04-06T11:35:13.201Z,38.00
2019-04-06T11:37:46.876Z,37.12
2019-04-06T11:40:29.539Z,36.49
2019-04-06T11:43:05.617Z,35.94
2019-04-06T11:45:35.806Z,36.60
2019-04-06T11:48:12.230Z,37.79
2019-04-06T11:50:54.129Z,36.36
2019-04-06T11:53:36.379Z,35.78
2019-04-06T11:56:06.663Z,36.62
2019-04-06T11:58:40.017Z,35.47
2019-04-06T12:01:19.330Z,36.23
2019-04-06T12:03:55.698Z,36.58
2019-04-06T12:06:31.842Z,35.44
2019-04-06T12:09:10.500Z,35.64
2019-04-06T12:11:45.572Z,34.77
2019-04-06T12:14:18.461Z,34.61
2019-04-06T12:16:49.070Z,34.67
2019-04-06T12:19:25.107Z,34.08
2019-04-06T12:22:12.044Z,33.72
2019-04-06T12:24:54.037Z,34.45
2019-04-06T12:27:40.675Z,34.50
2019-04-06T12:30:16.308Z,32.97
2019-04-06T12:33:02.759Z,32.02
2019-04-06T12:35:35.655Z,33.49
2019-04-06T12:38:08.571Z,32.29
2019-04-06T12:40:55.007Z,33.17
2019-04-06T12:43:25.232Z,33.14
2019-04-06T12:46:11.491Z,32.29
2019-04-06T12:48:46.438Z,30.27
2019-04-06T12:51:31.802Z,30.17
2019-04-06T12:54:18.891Z,32.08
2019-04-06T12:56:49.520Z,31.45
2019-04-06T12:59:20.201Z,31.36
2019-04-06T13:02:05.183Z,30.83
2019-04-06T13:04:38.324Z,31.70
2019-04-06T13:07:08.519Z,32.09
2019-04-06T13:09:41.504Z,32.27
2019-04-06T13:12:12.635Z,31.49
2019-04-06T13:14:48.793Z,31.68
2019-04-06T13:17:25.737Z,32.27
2019-04-06T13:19:59.114Z,32.36
2019-04-06T13:22:34.815Z,31.88
2019-04-06T13:25:17.663Z,32.31
2019-04-06T13:27:49.398Z,31.86
2019-04-06T13:30:28.742Z,31.82
2019-04-06T13:33:15.127Z,31.92
2019-04-06T13:35:45.377Z,33.58
2019-04-06T13:38:15.582Z,32.54
2019-04-06T13:40:48.206Z,33.56
2019-04-06T13:43:24.244Z,33.05
2019-04-06T13:46:06.417Z,33.32
2019-04-06T13:48:36.651Z,31.84
2019-04-06T13:51:15.352Z,32.39
2019-04-06T13:53:45.942Z,31.75
2019-04-06T13:56:16.515Z,30.82
2019-04-06T13:59:01.761Z,30.41
2019-04-06T14:01:35.115Z,29.41
2019-04-06T14:04:08.026Z,30.58
2019-04-06T14:06:45.811Z,30.20
2019-04-06T14:09:21.985Z,30.41
2019-04-06T14:11:55.203Z,30.08
2019-04-06T14:14:40.399Z,31.15
2019-04-06T14:17:10.642Z,29.85
2019-04-06T14:19:43.331Z,30.89
2019-04-06T14:22:15.211Z,30.33
2019-04-06T14:24:54.122Z,30.71
2019-04-06T14:27:42.435Z,30.46
2019-04-06T14:30:12.771Z,29.78
2019-04-06T14:32:45.716Z,29.62
2019-04-06T14:35:16.038Z,28.84
2019-04-06T14:37:52.460Z,28.73
2019-04-06T14:40:38.946Z,30.35
2019-04-06T14:43:15.424Z,29.68
2019-04-06T14:45:48.701Z,29.84
2019-04-06T14:48:19.067Z,29.41
2019-04-06T14:50:50.782Z,29.77
2019-04-06T14:53:37.171Z,30.13
2019-04-06T14:56:07.951Z,29.25
2019-04-06T14:58:38.154Z,29.45
2019-04-06T15:01:08.463Z,28.55
2019-04-06T15:03:38.704Z,29.04
2019-04-06T15:06:08.903Z,28.05
2019-04-06T15:08:41.980Z,29.14
2019-04-06T15:11:18.355Z,29.08
2019-04-06T15:13:51.411Z,29.38
2019-04-06T15:16:30.879Z,28.62
2019-04-06T15:19:07.074Z,26.99
2019-04-06T15:21:43.933Z,27.56
2019-04-06T15:24:15.422Z,27.89
2019-04-06T15:26:45.682Z,27.41
2019-04-06T15:29:30.764Z,27.36
2019-04-06T15:32:04.078Z,26.61
2019-04-06T15:34:50.895Z,27.20
2019-04-06T15:37:21.440Z,28.00
2019-04-06T15:39:57.360Z,25.73
2019-04-06T15:42:46.155Z,27.42
2019-04-06T15:45:34.730Z,25.46
2019-04-06T15:48:05.363Z,27.47
2019-04-06T15:50:41.438Z,27.40
2019-04-06T15:53:20.713Z,27.37
2019-04-06T15:55:51.054Z,28.17
2019-04-06T15:58:21.632Z,28.39
2019-04-06T16:01:08.167Z,27.56
2019-04-06T16:03:41.192Z,29.81
2019-04-06T16:06:11.433Z,28.79
2019-04-06T16:08:41.659Z,27.95
2019-04-06T16:11:12.148Z,29.72
2019-04-06T16:13:42.485Z,30.29
2019-04-06T16:16:22.052Z,30.97
2019-04-06T16:19:04.390Z,30.21
2019-04-06T16:21:40.480Z,31.05
2019-04-06T16:24:15.638Z,30.76
2019-04-06T16:26:51.423Z,30.55
2019-04-06T16:29:21.639Z,31.97
2019-04-06T16:31:52.263Z,32.78
2019-04-06T16:34:22.501Z,33.74
2019-04-06T16:36:52.865Z,32.34
2019-04-06T16:39:26.579Z,33.48
2019-04-06T16:41:56.969Z,32.82
2019-04-06T16:44:30.375Z,33.51
2019-04-06T16:47:16.926Z,33.60
2019-04-06T16:49:50.039Z,34.08
2019-04-06T16:52:23.157Z,34.68
2019-04-06T16:54:53.402Z,35.35
2019-04-06T16:57:23.891Z,34.85
2019-04-06T16:59:56.908Z,36.30
2019-04-06T17:02:36.241Z,35.77
2019-04-06T17:05:07.433Z,36.06
2019-04-06T17:07:46.512Z,36.27
2019-04-06T17:10:17.026Z,36.08
2019-04-06T17:12:47.720Z,36.18
2019-04-06T17:15:30.651Z,36.65
2019-04-06T17:18:17.393Z,37.25
2019-04-06T17:20:56.054Z,37.36
2019-04-06T17:23:31.937Z,37.83
2019-04-06T17:26:02.186Z,38.73
2019-04-06T17:28:47.405Z,38.89
2019-04-06T17:31:29.881Z,39.75
2019-04-06T17:34:06.160Z,39.55
2019-04-06T17:36:54.986Z,40.08
2019-04-06T17:39:28.177Z,41.17
2019-04-06T17:42:10.931Z,41.57
2019-04-06T17:44:41.589Z,41.54
2019-04-06T17:47:18.062Z,41.91
2019-04-06T17:49:51.605Z,42.15
2019-04-06T17:52:25.163Z,42.83
2019-04-06T17:54:55.848Z,42.94
2019-04-06T17:57:42.064Z,43.42
2019-04-06T18:00:19.809Z,44.12
2019-04-06T18:02:51.018Z,44.14
2019-04-06T18:05:36.364Z,44.71
2019-04-06T18:08:13.124Z,45.06
2019-04-06T18:10:55.193Z,45.86
2019-04-06T18:13:45.459Z,45.72
2019-04-06T18:16:14.343Z,46.40
2019-04-06T18:18:42.995Z,47.50
2019-04-06T18:21:11.660Z,47.46
2019-04-06T18:23:40.362Z,47.79
2019-04-06T18:26:09.491Z,47.88
2019-04-06T18:28:38.102Z,47.86
2019-04-06T18:31:08.557Z,47.93
2019-04-06T18:33:37.270Z,48.49
2019-04-06T18:36:06.049Z,48.76
2019-04-06T18:38:43.274Z,49.40
2019-04-06T18:41:12.023Z,49.71
2019-04-06T18:43:40.753Z,49.98
2019-04-06T18:46:09.360Z,50.41
2019-04-06T18:48:38.298Z,50.87
2019-04-06T18:51:07.648Z,50.23
2019-04-06T18:53:37.043Z,51.06
2019-04-06T18:56:05.888Z,51.13
2019-04-06T18:58:34.453Z,51.62
2019-04-06T19:01:03.719Z,51.79
2019-04-06T19:03:32.668Z,52.48
2019-04-06T19:06:01.359Z,52.08
2019-04-06T19:08:30.020Z,53.55
2019-04-06T19:10:58.948Z,52.73
2019-04-06T19:13:27.691Z,53.02
2019-04-06T19:15:56.789Z,53.25
2019-04-06T19:18:25.492Z,53.55
2019-04-06T19:20:54.203Z,53.52
2019-04-06T19:23:22.967Z,53.56
2019-04-06T19:25:51.639Z,53.92
2019-04-06T19:28:20.966Z,54.07
2019-04-06T19:30:49.928Z,55.15
2019-04-06T19:33:25.007Z,55.05
2019-04-06T19:35:49.433Z,55.09
2019-04-06T19:38:18.174Z,54.85
2019-04-06T19:40:50.398Z,55.18
2019-04-06T19:43:19.095Z,55.51
2019-04-06T19:45:47.690Z,55.39
2019-04-06T19:48:16.299Z,56.20
2019-04-06T19:50:45.013Z,55.70
2019-04-06T19:53:15.710Z,56.83
2019-04-06T19:55:44.612Z,56.44
2019-04-06T19:58:13.708Z,56.73
2019-04-06T20:00:42.636Z,57.05
2019-04-06T20:03:11.164Z,57.15
2019-04-06T20:05:40.201Z,57.60
2019-04-06T20:08:09.712Z,57.75
2019-04-06T20:10:38.640Z,57.74
2019-04-06T20:13:07.565Z,57.58
2019-04-06T20:15:36.393Z,57.97
2019-04-06T20:18:05.494Z,58.58
2019-04-06T20:20:34.287Z,58.71
2019-04-06T20:23:02.947Z,58.72
2019-04-06T20:25:31.943Z,59.04
2019-04-06T20:28:00.486Z,59.79
2019-04-06T20:30:29.051Z,59.10
2019-04-06T20:32:58.133Z,59.03
2019-04-06T20:35:27.148Z,59.69
2019-04-06T20:37:55.869Z,59.61
2019-04-06T20:40:24.562Z,60.31
2019-04-06T20:42:53.202Z,59.96
2019-04-06T20:45:21.805Z,60.32
2019-04-06T20:47:50.699Z,59.99
2019-04-06T20:50:19.346Z,60.28
2019-04-06T20:52:48.375Z,59.98
2019-04-06T20:55:16.995Z,60.60
2019-04-06T20:57:46.217Z,60.70
2019-04-06T21:00:16.952Z,61.19
2019-04-06T21:02:45.602Z,61.23
2019-04-06T21:05:16.724Z,61.38
2019-04-06T21:07:48.499Z,61.22
2019-04-06T21:10:17.203Z,61.24
2019-04-06T21:12:47.620Z,61.86
2019-04-06T21:15:20.545Z,61.62
2019-04-06T21:17:48.536Z,61.62
2019-04-06T21:20:18.299Z,62.08
2019-04-06T21:22:47.042Z,61.86
2019-04-06T21:25:15.738Z,61.60
2019-04-06T21:27:47.823Z,61.29
2019-04-06T21:30:16.930Z,61.89
2019-04-06T21:32:45.873Z,62.12
2019-04-06T21:35:16.337Z,61.93
2019-04-06T21:37:45.925Z,62.23
2019-04-06T21:40:16.988Z,62.16
2019-04-06T21:43:06.885Z,62.66
2019-04-06T21:45:35.545Z,62.40
2019-04-06T21:48:04.863Z,62.71
2019-04-06T21:50:33.481Z,63.26
2019-04-06T21:53:02.529Z,62.90
2019-04-06T21:55:31.278Z,63.11
2019-04-06T21:57:59.895Z,63.38
2019-04-06T22:00:33.308Z,64.23
2019-04-06T22:03:02.885Z,64.08
2019-04-06T22:05:32.017Z,63.65
2019-04-06T22:08:00.746Z,64.23
2019-04-06T22:10:29.821Z,63.83
2019-04-06T22:12:58.936Z,63.93
2019-04-06T22:15:28.266Z,64.09
2019-04-06T22:17:56.869Z,64.10
2019-04-06T22:20:25.501Z,64.35
2019-04-06T22:22:54.122Z,64.82
2019-04-06T22:25:22.740Z,65.56
2019-04-06T22:27:51.350Z,64.81
2019-04-06T22:30:20.067Z,65.25
2019-04-06T22:32:49.625Z,65.22
2019-04-06T22:35:18.443Z,66.01
2019-04-06T22:37:47.459Z,65.21
2019-04-06T22:40:19.685Z,66.12
2019-04-06T22:42:48.390Z,65.69
2019-04-06T22:45:21.712Z,65.68
2019-04-06T22:47:50.833Z,65.84
2019-04-06T22:50:19.983Z,65.97
2019-04-06T22:52:49.217Z,65.71
2019-04-06T22:55:17.808Z,66.40
2019-04-06T22:57:46.618Z,66.65
2019-04-06T23:00:20.279Z,66.94
2019-04-06T23:02:57.131Z,67.12
2019-04-06T23:05:30.202Z,67.03
2019-04-06T23:07:59.844Z,67.77
2019-04-06T23:10:28.556Z,68.08
2019-04-06T23:12:57.437Z,68.13
2019-04-06T23:15:26.620Z,67.88
2019-04-06T23:17:55.503Z,67.98
2019-04-06T23:20:24.375Z,68.08
2019-04-06T23:22:52.965Z,68.03
2019-04-06T23:25:21.642Z,68.37
2019-04-06T23:27:50.357Z,68.88
2019-04-06T23:30:19.390Z,68.81
2019-04-06T23:32:47.971Z,68.91
2019-04-06T23:35:18.567Z,69.06
2019-04-06T23:37:47.267Z,69.09
2019-04-06T23:40:16.620Z,69.15
2019-04-06T23:42:48.141Z,69.15
2019-04-06T23:45:19.649Z,69.24
2019-04-06T23:47:48.425Z,69.39
2019-04-06T23:50:17.056Z,69.54
2019-04-06T23:52:46.659Z,69.98
2019-04-06T23:55:18.110Z,69.99
2019-04-06T23:57:50.052Z,70.34
